Time;durP1;ratioP1;P1;durP2;ratioP2;P2;SDS_P1;SDS_P2;PMS_P1;PMS_P2;Temp;Humidity;BMP_temperature;BMP_pressure;BME280_temperature;BME280_humidity;BME280_pressure;Samples;Min_cycle;Max_cycle;Signal;HPM_P1;HPM_P2
2024/03/09 00:01:29;;;;;;;13.27;10.95;;;6.40;99.90;;;;;;5051552;28;20206;-84
2024/03/09 00:03:56;;;;;;;16.30;11.93;;;4.80;99.90;;;;;;5050122;28;20199;-86
2024/03/09 00:06:21;;;;;;;15.35;11.60;;;5.00;99.90;;;;;;5050886;28;20700;-85
2024/03/09 00:08:49;;;;;;;16.23;11.40;;;5.20;99.90;;;;;;5052022;28;20258;-85
2024/03/09 00:11:14;;;;;;;17.05;12.05;;;5.40;99.90;;;;;;5045039;28;20195;-86
2024/03/09 00:13:41;;;;;;;16.67;11.40;;;5.00;99.90;;;;;;5051675;28;20255;-86
2024/03/09 00:16:08;;;;;;;16.48;11.85;;;5.40;99.90;;;;;;5052071;28;20264;-85
2024/03/09 00:18:34;;;;;;;14.48;11.55;;;;;;;;;;5052485;28;20208;-86
2024/03/09 00:20:59;;;;;;;16.40;12.35;;;5.00;99.90;;;;;;5054889;28;20214;-85
2024/03/09 00:23:26;;;;;;;13.97;11.30;;;5.00;99.90;;;;;;5033379;28;20655;-86
2024/03/09 00:25:52;;;;;;;15.57;12.02;;;5.10;99.90;;;;;;5054449;28;20191;-86
2024/03/09 00:28:18;;;;;;;17.52;11.18;;;4.80;99.90;;;;;;5057975;28;20328;-86
2024/03/09 00:30:44;;;;;;;17.73;11.77;;;5.00;99.90;;;;;;5053451;28;20212;-86
2024/03/09 00:33:10;;;;;;;16.15;11.93;;;5.00;99.90;;;;;;5038181;28;20192;-86
2024/03/09 00:35:35;;;;;;;16.00;12.40;;;4.90;99.90;;;;;;5051562;28;20254;-86
2024/03/09 00:38:03;;;;;;;16.60;12.00;;;4.90;99.90;;;;;;5053373;28;20762;-86
2024/03/09 00:40:29;;;;;;;13.85;11.93;;;;;;;;;;5044261;28;20199;-86
2024/03/09 00:43:04;;;;;;;14.33;11.10;;;4.90;99.90;;;;;;5058197;28;20205;-86
2024/03/09 00:45:30;;;;;;;18.60;12.07;;;5.10;99.90;;;;;;5054918;28;20542;-86
2024/03/09 00:47:56;;;;;;;16.63;12.50;;;5.30;99.90;;;;;;5056031;28;20186;-86
2024/03/09 00:50:23;;;;;;;15.63;11.83;;;4.90;99.90;;;;;;5055759;28;20187;-86
2024/03/09 00:52:50;;;;;;;13.27;10.73;;;4.70;99.90;;;;;;5053219;28;20184;-86
2024/03/09 00:55:16;;;;;;;15.65;10.65;;;4.90;99.90;;;;;;5048087;28;20251;-86
2024/03/09 00:57:46;;;;;;;14.80;11.00;;;4.80;99.90;;;;;;5047241;28;20267;-86
2024/03/09 01:00:16;;;;;;;12.55;10.77;;;4.80;99.90;;;;;;5056349;28;20200;-85
2024/03/09 01:02:49;;;;;;;16.13;11.82;;;4.80;99.90;;;;;;5049856;28;20194;-86
2024/03/09 01:05:19;;;;;;;15.70;10.98;;;4.90;99.90;;;;;;5055940;28;20186;-86
2024/03/09 01:07:45;;;;;;;14.93;11.00;;;5.10;99.90;;;;;;5054230;28;20179;-86
2024/03/09 01:10:11;;;;;;;16.20;11.32;;;4.90;99.90;;;;;;5035808;28;20208;-86
2024/03/09 01:12:37;;;;;;;14.75;10.20;;;4.80;99.90;;;;;;5059311;28;20179;-86
2024/03/09 01:15:06;;;;;;;15.50;11.33;;;4.90;99.90;;;;;;5052401;28;20222;-86
2024/03/09 01:17:33;;;;;;;13.15;10.20;;;4.70;99.90;;;;;;5056012;28;20184;-86
2024/03/09 01:19:59;;;;;;;13.40;9.45;;;4.80;99.90;;;;;;5056937;28;20180;-86
2024/03/09 01:22:24;;;;;;;14.10;10.40;;;5.30;99.90;;;;;;5064724;28;20186;-85
2024/03/09 01:24:52;;;;;;;13.40;10.43;;;5.20;99.90;;;;;;5058067;28;20195;-85
2024/03/09 01:27:18;;;;;;;16.42;11.20;;;4.60;99.90;;;;;;5058406;28;20206;-85
2024/03/09 01:29:46;;;;;;;15.63;11.20;;;4.70;99.90;;;;;;5061462;28;20266;-86
2024/03/09 01:32:15;;;;;;;12.65;11.25;;;4.80;99.90;;;;;;5066814;28;20326;-85
2024/03/09 01:34:42;;;;;;;14.85;11.35;;;3.90;99.90;;;;;;5059059;28;20268;-85
2024/03/09 01:37:11;;;;;;;12.90;10.98;;;4.50;99.90;;;;;;5060914;28;20207;-85
2024/03/09 01:39:39;;;;;;;15.38;11.65;;;4.60;99.90;;;;;;5067153;28;20198;-85
2024/03/09 01:42:08;;;;;;;15.20;11.65;;;4.70;99.90;;;;;;5073392;28;20584;-85
2024/03/09 01:44:34;;;;;;;13.07;10.80;;;4.50;99.90;;;;;;5066971;28;20210;-85
2024/03/09 01:47:01;;;;;;;15.80;11.70;;;4.70;99.90;;;;;;5074390;28;20199;-85
2024/03/09 01:49:28;;;;;;;16.50;11.85;;;4.90;99.90;;;;;;5065171;28;20171;-85
2024/03/09 01:51:55;;;;;;;15.20;12.07;;;4.70;99.90;;;;;;5066505;28;20199;-85
2024/03/09 01:54:23;;;;;;;16.30;11.63;;;4.90;99.90;;;;;;5054458;28;20192;-85
2024/03/09 01:56:50;;;;;;;16.10;11.30;;;4.50;99.90;;;;;;5056773;28;20207;-85
2024/03/09 01:59:17;;;;;;;14.07;11.00;;;4.60;99.90;;;;;;5056165;28;20203;-85
2024/03/09 02:01:45;;;;;;;15.35;12.30;;;4.60;99.90;;;;;;5051800;28;20192;-85
2024/03/09 02:04:11;;;;;;;17.75;11.85;;;4.70;99.90;;;;;;5061010;28;20210;-85
2024/03/09 02:06:37;;;;;;;15.85;10.43;;;4.70;99.90;;;;;;5062221;28;20202;-85
2024/03/09 02:09:07;;;;;;;16.33;11.07;;;4.50;99.90;;;;;;5056860;28;20286;-85
2024/03/09 02:11:42;;;;;;;14.70;11.38;;;4.30;99.90;;;;;;5054120;28;20206;-85
2024/03/09 02:14:08;;;;;;;13.23;10.65;;;4.40;99.90;;;;;;5074482;28;20199;-86
2024/03/09 02:16:34;;;;;;;14.65;10.85;;;4.80;99.90;;;;;;5049782;28;20204;-85
2024/03/09 02:19:00;;;;;;;13.18;10.70;;;4.50;99.90;;;;;;5059230;28;20295;-85
2024/03/09 02:21:27;;;;;;;14.48;10.85;;;4.30;99.90;;;;;;5061097;28;20247;-85
2024/03/09 02:23:59;;;;;;;16.20;11.23;;;4.80;99.90;;;;;;5064830;28;20380;-85
2024/03/09 02:26:25;;;;;;;14.48;10.77;;;4.70;99.90;;;;;;5062883;28;20208;-86
2024/03/09 02:28:54;;;;;;;16.40;11.77;;;4.40;99.90;;;;;;5079987;28;20189;-86
2024/03/09 02:31:25;;;;;;;14.85;11.10;;;4.50;99.90;;;;;;5069475;28;20189;-85
2024/03/09 02:33:52;;;;;;;15.52;10.90;;;4.60;99.90;;;;;;5069959;28;20208;-86
2024/03/09 02:36:26;;;;;;;18.08;12.48;;;4.80;99.90;;;;;;5077083;28;20216;-85
2024/03/09 02:38:52;;;;;;;14.18;11.20;;;5.00;99.90;;;;;;5055470;28;20216;-85
2024/03/09 02:41:18;;;;;;;13.43;10.33;;;4.60;99.90;;;;;;5055344;28;20194;-85
2024/03/09 02:43:47;;;;;;;15.05;10.93;;;5.10;99.90;;;;;;5057185;28;20448;-85
2024/03/09 02:46:15;;;;;;;13.75;11.27;;;4.60;99.90;;;;;;5037575;28;20229;-85
2024/03/09 02:48:44;;;;;;;14.02;10.60;;;4.40;99.90;;;;;;5052202;28;20191;-85
2024/03/09 02:51:16;;;;;;;18.05;10.93;;;4.60;99.90;;;;;;5057558;28;20184;-85
2024/03/09 02:53:45;;;;;;;13.75;10.70;;;4.90;99.90;;;;;;5053634;28;20190;-85
2024/03/09 02:56:11;;;;;;;12.68;10.35;;;4.80;99.90;;;;;;5040424;28;20279;-85
2024/03/09 02:58:37;;;;;;;14.35;10.75;;;4.80;99.90;;;;;;5052496;28;20668;-85
2024/03/09 03:01:07;;;;;;;14.53;11.33;;;5.20;99.90;;;;;;5051700;28;20280;-85
2024/03/09 03:03:46;;;;;;;18.00;11.60;;;4.70;99.90;;;;;;5052051;28;20184;-85
2024/03/09 03:06:13;;;;;;;13.18;10.95;;;4.70;99.90;;;;;;5051467;28;20190;-85
2024/03/09 03:08:38;;;;;;;14.80;10.93;;;4.70;99.90;;;;;;5056526;28;20243;-85
2024/03/09 03:11:04;;;;;;;14.73;11.03;;;5.10;99.90;;;;;;5062052;28;20212;-85
2024/03/09 03:13:30;;;;;;;14.63;10.37;;;5.40;99.90;;;;;;5064428;28;20642;-86
2024/03/09 03:15:55;;;;;;;15.10;11.03;;;4.90;99.90;;;;;;5061607;28;20213;-85
2024/03/09 03:18:22;;;;;;;15.27;11.70;;;5.30;99.90;;;;;;5052800;28;20462;-85
2024/03/09 03:20:48;;;;;;;13.30;10.68;;;4.90;99.90;;;;;;5058708;28;20989;-85
2024/03/09 03:23:14;;;;;;;12.88;10.63;;;4.60;99.90;;;;;;5052001;28;20192;-86
2024/03/09 03:25:39;;;;;;;13.17;11.00;;;5.30;99.90;;;;;;5057588;28;20788;-85
2024/03/09 03:28:08;;;;;;;14.23;10.73;;;5.20;99.90;;;;;;5054032;28;20679;-85
2024/03/09 03:30:36;;;;;;;18.17;10.90;;;5.20;99.90;;;;;;5047126;28;20206;-86
2024/03/09 03:33:02;;;;;;;12.48;10.95;;;5.40;99.90;;;;;;5052220;28;20238;-86
2024/03/09 03:35:28;;;;;;;14.37;10.80;;;5.40;99.90;;;;;;5059961;28;20197;-86
2024/03/09 03:37:58;;;;;;;17.47;11.50;;;5.60;99.90;;;;;;5065852;28;20236;-86
2024/03/09 03:40:24;;;;;;;16.52;11.95;;;5.70;99.90;;;;;;5064812;28;20537;-86
2024/03/09 03:42:50;;;;;;;14.43;11.00;;;5.80;99.90;;;;;;5058879;28;20196;-86
2024/03/09 03:45:16;;;;;;;16.15;11.32;;;5.70;99.90;;;;;;5058800;28;20184;-86
2024/03/09 03:47:42;;;;;;;14.27;11.07;;;5.60;99.90;;;;;;5073401;28;20180;-86
2024/03/09 03:50:10;;;;;;;16.47;11.77;;;5.60;99.90;;;;;;5066404;28;20195;-86
2024/03/09 03:52:40;;;;;;;16.70;10.75;;;6.00;99.90;;;;;;5051374;28;20240;-85
2024/03/09 03:55:11;;;;;;;15.60;10.90;;;5.50;99.90;;;;;;5054721;28;20858;-86
2024/03/09 03:57:39;;;;;;;15.00;11.30;;;5.80;99.90;;;;;;5047732;28;20207;-85
2024/03/09 04:00:06;;;;;;;15.18;11.48;;;5.80;99.90;;;;;;5039403;28;20208;-86
2024/03/09 04:02:35;;;;;;;13.73;10.57;;;5.80;99.90;;;;;;5056166;28;20172;-86
2024/03/09 04:05:02;;;;;;;14.25;11.07;;;5.80;99.90;;;;;;5049046;28;20179;-86
2024/03/09 04:07:28;;;;;;;14.15;10.95;;;6.00;99.90;;;;;;5057161;28;20249;-86
2024/03/09 04:09:54;;;;;;;13.87;10.70;;;6.00;99.90;;;;;;5049316;28;20585;-86
2024/03/09 04:12:20;;;;;;;15.38;11.48;;;6.00;99.90;;;;;;5052610;28;20838;-86
2024/03/09 04:14:47;;;;;;;15.40;11.70;;;6.20;99.90;;;;;;5050684;28;20189;-86
2024/03/09 04:17:13;;;;;;;14.05;11.27;;;6.60;99.90;;;;;;5053551;28;20222;-86
2024/03/09 04:19:38;;;;;;;15.00;11.43;;;6.30;99.90;;;;;;5046503;28;20204;-86
2024/03/09 04:22:05;;;;;;;14.90;11.30;;;6.70;99.90;;;;;;5059775;28;20194;-86
2024/03/09 04:24:30;;;;;;;19.27;11.38;;;5.90;99.90;;;;;;5073750;28;20458;-85
2024/03/09 04:26:56;;;;;;;13.70;10.90;;;6.20;99.90;;;;;;5061087;28;20215;-86
2024/03/09 04:29:22;;;;;;;18.07;12.80;;;5.90;99.90;;;;;;5052007;28;20189;-86
2024/03/09 04:31:49;;;;;;;15.07;10.90;;;5.60;99.90;;;;;;5059169;28;20212;-85
2024/03/09 04:34:17;;;;;;;14.13;11.50;;;5.60;99.90;;;;;;5054106;28;20206;-86
2024/03/09 04:36:45;;;;;;;13.80;11.35;;;5.70;99.90;;;;;;5050303;28;20217;-86
2024/03/09 04:39:12;;;;;;;18.15;11.80;;;6.10;99.90;;;;;;5054936;28;20263;-85
2024/03/09 04:41:37;;;;;;;15.80;10.75;;;5.90;99.90;;;;;;5043464;28;20661;-86
2024/03/09 04:44:03;;;;;;;15.97;12.27;;;6.00;99.90;;;;;;5048605;28;20205;-85
2024/03/09 04:46:29;;;;;;;13.93;11.35;;;6.10;99.90;;;;;;5054860;28;20631;-85
2024/03/09 04:48:56;;;;;;;15.90;12.70;;;6.40;99.90;;;;;;5047915;28;20191;-86
2024/03/09 04:51:22;;;;;;;14.10;11.07;;;6.10;99.90;;;;;;5055274;28;20181;-86
2024/03/09 04:53:49;;;;;;;15.65;11.18;;;6.00;99.90;;;;;;5050121;28;20561;-85
2024/03/09 04:56:16;;;;;;;14.30;10.70;;;6.50;99.90;;;;;;5051732;28;20206;-87
2024/03/09 04:58:41;;;;;;;15.88;12.18;;;6.40;99.90;;;;;;5048265;28;20223;-86
2024/03/09 05:01:07;;;;;;;15.27;11.87;;;6.50;99.90;;;;;;5050594;28;20173;-86
2024/03/09 05:03:34;;;;;;;15.23;11.83;;;7.10;99.90;;;;;;5051084;28;20192;-86
2024/03/09 05:05:59;;;;;;;19.35;12.88;;;6.90;99.90;;;;;;5042203;28;20569;-86
2024/03/09 05:08:25;;;;;;;18.37;13.50;;;6.50;99.90;;;;;;5059298;28;20169;-85
2024/03/09 05:10:50;;;;;;;17.00;12.07;;;6.40;99.90;;;;;;5055818;28;20253;-86
2024/03/09 05:13:16;;;;;;;20.77;13.70;;;6.30;99.90;;;;;;5054564;28;20276;-86
2024/03/09 05:15:42;;;;;;;14.20;10.83;;;6.40;99.90;;;;;;5058513;28;20204;-85
2024/03/09 05:18:09;;;;;;;16.85;12.73;;;6.30;99.90;;;;;;5056841;28;20271;-86
2024/03/09 05:20:36;;;;;;;13.82;11.43;;;6.30;99.90;;;;;;5058342;28;20254;-86
2024/03/09 05:23:07;;;;;;;15.23;11.95;;;6.30;99.90;;;;;;5064801;28;20510;-86
2024/03/09 05:25:32;;;;;;;15.38;11.82;;;6.80;99.90;;;;;;5062947;28;20201;-86
2024/03/09 05:27:58;;;;;;;15.43;11.00;;;6.00;99.90;;;;;;5069170;28;20183;-86
2024/03/09 05:30:27;;;;;;;13.90;11.07;;;6.30;99.90;;;;;;5065958;28;20203;-86
2024/03/09 05:32:54;;;;;;;14.63;11.25;;;6.70;99.90;;;;;;5060800;28;20193;-86
2024/03/09 05:35:23;;;;;;;13.90;11.20;;;6.20;99.90;;;;;;5068108;28;20188;-86
2024/03/09 05:37:52;;;;;;;14.32;10.75;;;6.30;99.90;;;;;;5072081;28;20209;-86
2024/03/09 05:40:18;;;;;;;14.75;11.40;;;6.30;99.90;;;;;;5062115;28;20271;-86
2024/03/09 05:42:45;;;;;;;16.85;12.10;;;6.30;99.90;;;;;;5057269;28;20174;-86
2024/03/09 05:45:15;;;;;;;16.33;11.10;;;6.10;99.90;;;;;;5047802;28;20210;-85
2024/03/09 05:47:54;;;;;;;14.73;12.43;;;6.10;99.90;;;;;;5072179;28;20252;-86
2024/03/09 05:50:32;;;;;;;16.23;12.13;;;6.10;99.90;;;;;;5060503;28;20179;-86
2024/03/09 05:53:00;;;;;;;15.95;12.60;;;6.10;99.90;;;;;;5054284;28;20284;-86
2024/03/09 05:55:26;;;;;;;15.48;11.80;;;6.50;99.90;;;;;;5054714;28;20201;-86
2024/03/09 05:57:53;;;;;;;16.40;13.32;;;6.20;99.90;;;;;;5055348;28;20281;-86
2024/03/09 06:00:24;;;;;;;13.10;11.45;;;5.80;99.90;;;;;;5055018;28;20279;-86
2024/03/09 06:02:50;;;;;;;14.68;11.73;;;6.10;99.90;;;;;;5051763;28;20200;-86
2024/03/09 06:05:16;;;;;;;15.38;11.18;;;5.90;99.90;;;;;;5048561;28;20183;-86
2024/03/09 06:07:44;;;;;;;16.93;12.13;;;5.90;99.90;;;;;;5057584;28;20192;-86
2024/03/09 06:10:14;;;;;;;13.00;10.70;;;6.00;99.90;;;;;;5069589;28;20266;-86
2024/03/09 06:12:47;;;;;;;16.30;11.63;;;6.20;99.90;;;;;;5051602;28;20176;-85
2024/03/09 06:15:14;;;;;;;15.25;12.25;;;5.70;99.90;;;;;;5059423;28;20204;-85
2024/03/09 06:17:48;;;;;;;22.98;12.18;;;5.80;99.90;;;;;;5060903;28;20204;-86
2024/03/09 06:20:15;;;;;;;15.55;12.10;;;5.60;99.90;;;;;;5058568;28;20276;-86
2024/03/09 06:22:45;;;;;;;16.70;12.88;;;5.80;99.90;;;;;;5061924;28;20295;-86
2024/03/09 06:25:22;;;;;;;16.42;11.75;;;5.70;99.90;;;;;;5058881;28;20192;-86
2024/03/09 06:27:54;;;;;;;17.27;11.27;;;6.10;99.90;;;;;;5057487;28;20641;-86
2024/03/09 06:30:22;;;;;;;16.67;12.25;;;5.60;99.90;;;;;;5056178;28;20234;-86
2024/03/09 06:32:49;;;;;;;16.30;11.30;;;6.30;99.90;;;;;;5057106;28;20176;-86
2024/03/09 06:35:19;;;;;;;15.02;12.05;;;5.60;99.90;;;;;;5046537;28;20192;-87
2024/03/09 06:37:45;;;;;;;15.70;10.95;;;5.60;99.90;;;;;;5057133;28;20187;-86
2024/03/09 06:40:11;;;;;;;16.05;12.38;;;5.70;99.90;;;;;;5051295;28;20181;-86
2024/03/09 06:42:36;;;;;;;16.37;13.43;;;5.80;99.90;;;;;;5057733;28;20261;-86
2024/03/09 06:45:03;;;;;;;16.10;12.27;;;5.90;99.90;;;;;;5057454;28;20999;-86
2024/03/09 06:47:30;;;;;;;16.73;12.85;;;5.60;99.90;;;;;;5058300;28;20180;-86
2024/03/09 06:49:56;;;;;;;18.33;12.07;;;5.70;99.90;;;;;;5058287;28;20175;-86
2024/03/09 06:52:21;;;;;;;15.97;12.80;;;6.00;99.90;;;;;;5053813;28;20752;-86
2024/03/09 06:54:47;;;;;;;15.77;12.57;;;6.10;99.90;;;;;;5068945;28;20182;-87
2024/03/09 06:57:12;;;;;;;11.77;10.40;;;5.90;99.90;;;;;;5057390;28;20216;-86
2024/03/09 06:59:41;;;;;;;15.63;12.03;;;7.00;99.90;;;;;;5052506;28;20205;-86
2024/03/09 07:02:07;;;;;;;17.33;12.70;;;6.10;99.90;;;;;;5052861;28;20272;-86
2024/03/09 07:04:33;;;;;;;16.73;12.43;;;6.20;99.90;;;;;;5056302;28;20939;-87
2024/03/09 07:06:58;;;;;;;15.17;12.10;;;6.20;99.90;;;;;;5053979;28;20208;-86
2024/03/09 07:09:24;;;;;;;16.73;12.60;;;6.70;99.90;;;;;;5057279;28;20283;-86
2024/03/09 07:11:53;;;;;;;16.67;11.75;;;6.30;99.90;;;;;;5051983;28;20202;-84
2024/03/09 07:14:21;;;;;;;17.63;13.20;;;;;;;;;;5047362;28;20242;-83
2024/03/09 07:16:46;;;;;;;15.38;11.75;;;6.50;99.90;;;;;;5055152;28;20228;-84
2024/03/09 07:19:13;;;;;;;14.00;11.33;;;;;;;;;;5052809;28;20213;-84
2024/03/09 07:21:40;;;;;;;17.23;12.70;;;7.00;99.90;;;;;;5051208;28;20243;-85
2024/03/09 07:24:07;;;;;;;16.52;12.50;;;6.50;99.90;;;;;;5039073;28;20283;-85
2024/03/09 07:26:33;;;;;;;13.30;11.43;;;6.60;99.90;;;;;;5050249;28;20659;-85
2024/03/09 07:28:59;;;;;;;14.88;12.25;;;7.30;99.90;;;;;;5051813;28;20196;-86
2024/03/09 07:31:27;;;;;;;13.00;11.10;;;9.30;99.90;;;;;;5048831;28;20202;-87
2024/03/09 07:33:53;;;;;;;15.38;11.52;;;9.70;99.90;;;;;;5044423;28;20277;-86
2024/03/09 07:36:20;;;;;;;12.20;10.10;;;10.80;98.20;;;;;;5050689;28;20303;-88
2024/03/09 07:38:49;;;;;;;14.40;10.98;;;12.20;95.20;;;;;;5043688;28;20603;-87
2024/03/09 07:41:20;;;;;;;13.27;11.57;;;12.70;93.20;;;;;;5045452;28;20190;-88
2024/03/09 07:43:47;;;;;;;14.02;12.55;;;13.10;91.50;;;;;;5047871;28;20654;-85
2024/03/09 07:46:12;;;;;;;12.18;10.98;;;13.20;90.60;;;;;;5043174;28;20206;-85
2024/03/09 07:48:39;;;;;;;14.17;11.60;;;13.40;90.30;;;;;;5054581;28;20196;-85
2024/03/09 07:51:08;;;;;;;11.43;10.32;;;13.40;89.80;;;;;;5047497;28;20194;-85
2024/03/09 07:53:34;;;;;;;12.40;11.10;;;13.70;89.10;;;;;;5057167;28;20186;-85
2024/03/09 07:56:00;;;;;;;13.50;12.10;;;14.00;88.20;;;;;;5058766;28;20284;-85
2024/03/09 07:58:25;;;;;;;14.43;11.37;;;15.30;87.00;;;;;;5040497;28;20476;-84
2024/03/09 08:00:51;;;;;;;13.00;11.23;;;14.90;84.30;;;;;;5061947;28;20186;-85
2024/03/09 08:03:17;;;;;;;13.70;12.00;;;15.70;81.50;;;;;;5037097;28;20650;-86
2024/03/09 08:05:43;;;;;;;13.90;11.83;;;15.80;78.60;;;;;;5053187;28;20578;-83
2024/03/09 08:08:09;;;;;;;14.35;12.23;;;16.50;76.60;;;;;;5057571;28;20253;-85
2024/03/09 08:10:46;;;;;;;13.15;11.85;;;18.10;74.50;;;;;;5055603;28;20186;-85
2024/03/09 08:13:13;;;;;;;13.20;11.55;;;18.30;72.90;;;;;;5052898;28;20193;-85
2024/03/09 08:15:38;;;;;;;13.80;12.05;;;17.80;71.90;;;;;;5054565;28;20216;-85
2024/03/09 08:18:07;;;;;;;17.87;12.73;;;18.40;71.80;;;;;;5063753;28;20209;-84
2024/03/09 08:20:34;;;;;;;13.93;12.52;;;18.60;69.50;;;;;;5056798;28;20190;-87
2024/03/09 08:23:01;;;;;;;14.32;12.82;;;18.40;67.30;;;;;;5043044;28;20193;-84
2024/03/09 08:25:27;;;;;;;12.73;11.27;;;18.20;67.60;;;;;;5048600;28;20327;-86
2024/03/09 08:27:54;;;;;;;14.80;13.20;;;17.70;68.90;;;;;;5050598;28;20182;-86
2024/03/09 08:30:20;;;;;;;14.13;12.45;;;17.60;69.50;;;;;;5050502;28;20192;-87
2024/03/09 08:32:50;;;;;;;14.68;12.23;;;17.10;70.40;;;;;;5060808;28;20185;-87
2024/03/09 08:35:16;;;;;;;15.13;11.48;;;16.60;71.20;;;;;;5068703;28;20270;-85
2024/03/09 08:37:45;;;;;;;13.32;11.85;;;16.00;72.30;;;;;;5056771;28;20197;-86
2024/03/09 08:40:16;;;;;;;15.50;12.20;;;16.30;73.90;;;;;;5051736;28;20188;-86
2024/03/09 08:42:43;;;;;;;14.70;13.20;;;16.20;74.30;;;;;;5040813;28;20525;-85
2024/03/09 08:45:09;;;;;;;13.68;12.27;;;16.20;75.00;;;;;;5041238;28;20240;-87
2024/03/09 08:47:38;;;;;;;17.63;13.70;;;15.60;77.10;;;;;;5047852;28;20187;-86
2024/03/09 08:50:04;;;;;;;16.02;13.00;;;15.40;77.00;;;;;;5050986;28;20205;-86
2024/03/09 08:52:33;;;;;;;13.60;12.15;;;15.20;78.70;;;;;;5048428;28;20189;-88
2024/03/09 08:54:59;;;;;;;15.07;13.43;;;14.60;77.70;;;;;;5045447;28;20269;-88
2024/03/09 08:57:27;;;;;;;13.70;11.73;;;15.20;79.50;;;;;;5050408;28;20232;-87
2024/03/09 08:59:59;;;;;;;13.65;12.10;;;15.90;76.70;;;;;;5050709;28;20521;-87
2024/03/09 09:02:27;;;;;;;12.85;11.55;;;16.40;74.50;;;;;;5043344;28;20186;-88
2024/03/09 09:04:53;;;;;;;13.98;12.20;;;17.00;74.20;;;;;;5047233;28;20264;-88
2024/03/09 09:07:19;;;;;;;14.20;12.70;;;17.60;71.80;;;;;;5052073;28;20224;-88
2024/03/09 09:09:45;;;;;;;15.15;12.38;;;18.30;71.50;;;;;;5062392;28;20190;-88
2024/03/09 09:12:10;;;;;;;13.17;11.17;;;17.90;68.50;;;;;;5069669;28;20215;-89
2024/03/09 09:14:39;;;;;;;13.03;11.83;;;17.20;69.80;;;;;;5063064;28;20193;-84
2024/03/09 09:17:09;;;;;;;13.38;11.95;;;17.80;70.00;;;;;;5055546;28;20303;-84
2024/03/09 09:19:34;;;;;;;12.52;10.95;;;18.10;69.80;;;;;;5055529;28;20248;-85
2024/03/09 09:22:00;;;;;;;14.70;13.20;;;17.90;69.70;;;;;;5053471;28;20177;-84
2024/03/09 09:24:26;;;;;;;14.47;12.83;;;17.50;69.00;;;;;;5052414;28;20491;-84
2024/03/09 09:26:52;;;;;;;14.17;12.67;;;17.80;69.40;;;;;;5057751;28;20464;-84
2024/03/09 09:29:17;;;;;;;14.33;12.70;;;18.50;68.10;;;;;;5059805;28;20281;-84
2024/03/09 09:31:43;;;;;;;16.77;13.37;;;19.10;65.70;;;;;;5074900;28;20189;-85
2024/03/09 09:34:10;;;;;;;15.60;12.67;;;18.90;66.10;;;;;;5059566;28;20189;-84
2024/03/09 09:36:37;;;;;;;14.10;12.63;;;17.90;66.70;;;;;;5052499;28;20209;-84
2024/03/09 09:39:03;;;;;;;13.57;12.15;;;18.40;68.40;;;;;;5053420;28;20296;-84
2024/03/09 09:41:29;;;;;;;13.60;12.20;;;18.80;65.10;;;;;;5050893;28;20237;-84
2024/03/09 09:43:59;;;;;;;14.52;13.02;;;19.40;63.80;;;;;;5054740;28;20189;-85
2024/03/09 09:46:29;;;;;;;11.82;10.63;;;20.00;64.00;;;;;;5054487;28;20206;-85
2024/03/09 09:48:55;;;;;;;13.43;12.02;;;20.30;63.50;;;;;;5054268;28;20189;-84
2024/03/09 09:51:22;;;;;;;13.43;12.10;;;20.80;62.50;;;;;;5049820;28;20228;-84
2024/03/09 09:53:52;;;;;;;12.23;11.03;;;21.50;59.60;;;;;;5057727;28;20449;-84
2024/03/09 09:56:19;;;;;;;12.70;11.50;;;22.40;58.20;;;;;;5041991;28;20464;-84
2024/03/09 09:58:44;;;;;;;12.70;11.40;;;20.70;57.50;;;;;;5054011;28;20241;-84
2024/03/09 10:01:10;;;;;;;12.10;11.00;;;21.60;58.10;;;;;;5058462;28;20440;-84
2024/03/09 10:03:36;;;;;;;10.90;9.80;;;22.20;57.30;;;;;;5058032;28;20213;-84
2024/03/09 10:06:16;;;;;;;11.97;10.90;;;21.90;56.10;;;;;;5052907;28;20197;-84
2024/03/09 10:08:49;;;;;;;9.73;8.80;;;23.30;55.40;;;;;;5054820;28;21755;-84
2024/03/09 10:11:16;;;;;;;9.27;8.23;;;22.90;52.60;;;;;;5052095;28;20481;-84
2024/03/09 10:13:45;;;;;;;9.73;8.50;;;23.00;53.90;;;;;;5047021;28;20443;-83
2024/03/09 10:16:13;;;;;;;9.40;8.50;;;22.40;53.20;;;;;;5051809;28;20506;-84
2024/03/09 10:18:41;;;;;;;10.40;8.60;;;22.20;53.70;;;;;;5053418;28;20460;-85
2024/03/09 10:21:08;;;;;;;8.27;7.47;;;22.60;53.40;;;;;;5052908;28;20428;-84
2024/03/09 10:23:34;;;;;;;8.60;7.43;;;22.80;52.00;;;;;;5052095;28;20482;-84
2024/03/09 10:26:07;;;;;;;8.30;7.43;;;23.00;51.70;;;;;;5050045;28;20536;-84
2024/03/09 10:28:52;;;;;;;7.27;6.57;;;23.10;51.00;;;;;;5063766;28;20483;-84
2024/03/09 10:31:18;;;;;;;9.83;6.97;;;23.40;50.90;;;;;;5060854;28;20445;-84
2024/03/09 10:33:52;;;;;;;7.87;6.60;;;22.30;50.80;;;;;;5053834;28;20444;-85
2024/03/09 10:36:17;;;;;;;8.30;6.60;;;22.10;53.00;;;;;;5052968;28;20206;-84
2024/03/09 10:38:44;;;;;;;7.50;6.73;;;20.90;52.60;;;;;;5053673;28;20211;-84
2024/03/09 10:41:10;;;;;;;6.75;6.05;;;20.20;54.10;;;;;;5056576;28;20263;-84
2024/03/09 10:43:39;;;;;;;7.22;6.45;;;20.10;55.20;;;;;;5056481;28;20196;-84
2024/03/09 10:46:05;;;;;;;6.95;6.30;;;19.40;55.90;;;;;;5056709;28;20209;-84
2024/03/09 10:48:33;;;;;;;7.55;6.32;;;19.40;55.10;;;;;;5052414;28;20187;-83
2024/03/09 10:50:58;;;;;;;6.55;5.68;;;19.80;55.30;;;;;;5050475;28;20189;-84
2024/03/09 10:53:55;;;;;;;6.87;6.10;;;19.80;55.90;;;;;;5052593;28;20195;-85
2024/03/09 10:56:22;;;;;;;6.90;6.28;;;20.30;55.20;;;;;;5056504;28;20222;-84
2024/03/09 10:58:51;;;;;;;7.65;6.95;;;20.10;55.40;;;;;;5053457;28;20209;-84
2024/03/09 11:01:21;;;;;;;9.18;6.85;;;20.10;56.10;;;;;;5054322;28;20186;-85
2024/03/09 11:03:50;;;;;;;8.60;7.68;;;20.50;55.60;;;;;;5054830;28;20186;-85
2024/03/09 11:06:18;;;;;;;8.30;7.50;;;21.00;55.00;;;;;;5051041;28;20198;-85
2024/03/09 11:08:53;;;;;;;9.20;7.25;;;21.50;53.80;;;;;;5053032;28;20461;-84
2024/03/09 11:11:21;;;;;;;12.97;11.70;;;21.50;52.80;;;;;;5057226;28;20204;-85
2024/03/09 11:13:47;;;;;;;7.63;6.93;;;22.50;51.90;;;;;;5057464;28;20490;-85
2024/03/09 11:16:13;;;;;;;8.27;7.47;;;23.20;50.60;;;;;;5058888;28;20457;-85
2024/03/09 11:18:43;;;;;;;8.10;7.30;;;23.50;49.80;;;;;;5075077;28;20583;-84
2024/03/09 11:21:11;;;;;;;8.13;7.33;;;23.60;49.50;;;;;;5066317;28;20543;-85
2024/03/09 11:23:38;;;;;;;13.00;9.90;;;23.40;50.00;;;;;;5049804;28;20463;-84
2024/03/09 11:26:03;;;;;;;12.47;11.20;;;23.10;51.00;;;;;;5048152;28;20470;-84
2024/03/09 11:28:41;;;;;;;15.33;11.83;;;22.50;51.80;;;;;;5052914;28;20436;-85
2024/03/09 11:31:11;;;;;;;11.83;10.73;;;22.00;54.50;;;;;;5042892;28;20194;-86
2024/03/09 11:33:46;;;;;;;12.13;10.93;;;22.10;53.50;;;;;;5048859;28;20444;-85
2024/03/09 11:36:42;;;;;;;11.77;10.57;;;22.60;54.00;;;;;;5055430;28;20459;-85
2024/03/09 11:39:09;;;;;;;12.17;10.97;;;22.20;53.60;;;;;;5047543;28;20461;-85
2024/03/09 11:41:35;;;;;;;10.20;9.20;;;21.90;53.20;;;;;;5049222;28;20479;-85
2024/03/09 11:44:04;;;;;;;11.90;10.70;;;21.90;53.10;;;;;;5047123;28;20558;-85
2024/03/09 11:46:33;;;;;;;11.43;10.17;;;21.60;54.20;;;;;;5049665;28;21015;-85
2024/03/09 11:49:03;;;;;;;11.20;10.10;;;21.60;54.60;;;;;;5054392;28;20443;-85
2024/03/09 11:51:35;;;;;;;10.90;9.63;;;21.50;54.20;;;;;;5052335;28;20193;-85
2024/03/09 11:54:06;;;;;;;11.55;10.40;;;21.60;55.80;;;;;;5049551;28;20204;-85
2024/03/09 11:56:33;;;;;;;12.50;11.30;;;20.60;55.80;;;;;;5054498;28;20576;-85
2024/03/09 11:58:59;;;;;;;9.65;8.65;;;20.30;56.70;;;;;;5051535;28;21559;-85
2024/03/09 12:01:25;;;;;;;9.00;8.13;;;20.00;57.40;;;;;;5049295;28;20186;-83
2024/03/09 12:03:52;;;;;;;6.37;5.73;;;20.10;57.80;;;;;;5049590;28;20200;-83
2024/03/09 12:06:18;;;;;;;3.13;2.83;;;19.30;55.40;;;;;;5054924;28;20202;-83
2024/03/09 12:08:44;;;;;;;4.70;4.25;;;19.70;51.50;;;;;;5055580;28;20890;-84
2024/03/09 12:11:10;;;;;;;3.67;3.37;;;20.00;51.80;;;;;;5053064;28;20220;-84
2024/03/09 12:13:36;;;;;;;3.87;3.47;;;19.70;51.30;;;;;;5061632;28;20185;-85
2024/03/09 12:16:03;;;;;;;4.00;3.70;;;19.50;50.30;;;;;;5057941;28;20213;-85
2024/03/09 12:18:29;;;;;;;4.05;3.55;;;19.40;50.00;;;;;;5056653;28;20530;-84
2024/03/09 12:20:55;;;;;;;4.40;3.78;;;19.60;49.60;;;;;;5050091;28;20185;-84
2024/03/09 12:23:24;;;;;;;4.07;2.97;;;19.20;49.10;;;;;;5048896;28;20205;-85
2024/03/09 12:25:50;;;;;;;4.40;4.00;;;19.00;49.60;;;;;;5045989;28;20759;-85
2024/03/09 12:28:19;;;;;;;4.10;3.70;;;18.70;49.80;;;;;;5053494;28;20231;-84
2024/03/09 12:30:51;;;;;;;5.13;3.63;;;19.10;50.50;;;;;;5047778;28;20244;-85
2024/03/09 12:33:17;;;;;;;5.80;4.85;;;18.20;50.90;;;;;;5048169;28;20193;-84
2024/03/09 12:35:46;;;;;;;5.13;4.63;;;18.30;51.80;;;;;;5049028;28;20213;-87
2024/03/09 12:38:12;;;;;;;4.88;4.10;;;18.70;53.50;;;;;;5064318;28;20305;-85
2024/03/09 12:40:42;;;;;;;6.85;4.95;;;18.40;52.70;;;;;;5064407;28;20196;-84